sensor_id;sensor_type;location;lat;lon;timestamp;P1;durP1;ratioP1;P2;durP2;ratioP2
3993;SDS011;2011;48.238;13.948;2023-02-15T00:01:22;52.67;;;20.10;;
3993;SDS011;2011;48.238;13.948;2023-02-15T00:03:51;61.60;;;19.50;;
3993;SDS011;2011;48.238;13.948;2023-02-15T00:06:18;87.00;;;20.52;;
3993;SDS011;2011;48.238;13.948;2023-02-15T00:08:45;114.82;;;22.17;;
3993;SDS011;2011;48.238;13.948;2023-02-15T00:11:12;71.00;;;21.90;;
3993;SDS011;2011;48.238;13.948;2023-02-15T00:13:41;94.53;;;21.33;;
3993;SDS011;2011;48.238;13.948;2023-02-15T00:16:09;52.95;;;20.25;;
3993;SDS011;2011;48.238;13.948;2023-02-15T00:18:37;76.53;;;21.70;;
3993;SDS011;2011;48.238;13.948;2023-02-15T00:21:06;127.28;;;24.60;;
3993;SDS011;2011;48.238;13.948;2023-02-15T00:23:34;139.45;;;24.27;;
3993;SDS011;2011;48.238;13.948;2023-02-15T00:26:05;56.20;;;21.15;;
3993;SDS011;2011;48.238;13.948;2023-02-15T00:28:33;105.88;;;22.27;;
3993;SDS011;2011;48.238;13.948;2023-02-15T00:31:04;77.90;;;24.05;;
3993;SDS011;2011;48.238;13.948;2023-02-15T00:33:31;60.92;;;19.40;;
3993;SDS011;2011;48.238;13.948;2023-02-15T00:35:59;64.82;;;21.33;;
3993;SDS011;2011;48.238;13.948;2023-02-15T00:38:27;55.63;;;20.67;;
3993;SDS011;2011;48.238;13.948;2023-02-15T00:40:56;53.35;;;19.77;;
3993;SDS011;2011;48.238;13.948;2023-02-15T00:43:24;109.95;;;23.58;;
3993;SDS011;2011;48.238;13.948;2023-02-15T00:45:51;103.68;;;22.90;;
3993;SDS011;2011;48.238;13.948;2023-02-15T00:48:18;103.75;;;22.00;;
3993;SDS011;2011;48.238;13.948;2023-02-15T00:50:46;190.30;;;23.40;;
3993;SDS011;2011;48.238;13.948;2023-02-15T00:53:13;172.52;;;23.65;;
3993;SDS011;2011;48.238;13.948;2023-02-15T00:55:41;264.40;;;28.17;;
3993;SDS011;2011;48.238;13.948;2023-02-15T00:58:08;132.27;;;22.13;;
3993;SDS011;2011;48.238;13.948;2023-02-15T01:00:36;179.45;;;23.15;;
3993;SDS011;2011;48.238;13.948;2023-02-15T01:03:03;78.45;;;22.17;;
3993;SDS011;2011;48.238;13.948;2023-02-15T01:05:30;68.10;;;21.23;;
3993;SDS011;2011;48.238;13.948;2023-02-15T01:07:57;144.77;;;21.35;;
3993;SDS011;2011;48.238;13.948;2023-02-15T01:10:25;84.47;;;21.20;;
3993;SDS011;2011;48.238;13.948;2023-02-15T01:12:53;138.23;;;23.13;;
3993;SDS011;2011;48.238;13.948;2023-02-15T01:15:21;74.80;;;20.98;;
3993;SDS011;2011;48.238;13.948;2023-02-15T01:17:49;65.50;;;19.08;;
3993;SDS011;2011;48.238;13.948;2023-02-15T01:20:18;101.60;;;23.63;;
3993;SDS011;2011;48.238;13.948;2023-02-15T01:22:46;81.80;;;22.63;;
3993;SDS011;2011;48.238;13.948;2023-02-15T01:25:15;79.38;;;21.10;;
3993;SDS011;2011;48.238;13.948;2023-02-15T01:27:42;54.53;;;20.63;;
3993;SDS011;2011;48.238;13.948;2023-02-15T01:30:11;99.35;;;23.83;;
3993;SDS011;2011;48.238;13.948;2023-02-15T01:32:39;100.20;;;22.55;;
3993;SDS011;2011;48.238;13.948;2023-02-15T01:35:06;159.45;;;25.05;;
3993;SDS011;2011;48.238;13.948;2023-02-15T01:37:34;230.55;;;27.73;;
3993;SDS011;2011;48.238;13.948;2023-02-15T01:40:01;77.43;;;20.55;;
3993;SDS011;2011;48.238;13.948;2023-02-15T01:42:29;232.70;;;27.10;;
3993;SDS011;2011;48.238;13.948;2023-02-15T01:44:57;89.50;;;21.88;;
3993;SDS011;2011;48.238;13.948;2023-02-15T01:47:27;66.43;;;20.20;;
3993;SDS011;2011;48.238;13.948;2023-02-15T01:50:02;132.13;;;24.98;;
3993;SDS011;2011;48.238;13.948;2023-02-15T01:52:35;160.07;;;25.45;;
3993;SDS011;2011;48.238;13.948;2023-02-15T01:55:07;63.75;;;20.73;;
3993;SDS011;2011;48.238;13.948;2023-02-15T01:57:35;67.25;;;21.08;;
3993;SDS011;2011;48.238;13.948;2023-02-15T02:00:03;74.35;;;20.75;;
3993;SDS011;2011;48.238;13.948;2023-02-15T02:02:33;71.13;;;19.85;;
3993;SDS011;2011;48.238;13.948;2023-02-15T02:05:02;71.75;;;19.95;;
3993;SDS011;2011;48.238;13.948;2023-02-15T02:07:36;177.50;;;25.73;;
3993;SDS011;2011;48.238;13.948;2023-02-15T02:10:07;173.90;;;25.08;;
3993;SDS011;2011;48.238;13.948;2023-02-15T02:12:35;383.95;;;31.52;;
3993;SDS011;2011;48.238;13.948;2023-02-15T02:15:05;84.95;;;20.30;;
3993;SDS011;2011;48.238;13.948;2023-02-15T02:17:36;82.68;;;19.50;;
3993;SDS011;2011;48.238;13.948;2023-02-15T02:20:16;82.78;;;20.65;;
3993;SDS011;2011;48.238;13.948;2023-02-15T02:23:07;51.65;;;19.27;;
3993;SDS011;2011;48.238;13.948;2023-02-15T02:32:15;69.03;;;19.50;;
3993;SDS011;2011;48.238;13.948;2023-02-15T02:35:03;87.45;;;20.92;;
3993;SDS011;2011;48.238;13.948;2023-02-15T02:37:35;63.17;;;19.23;;
3993;SDS011;2011;48.238;13.948;2023-02-15T02:40:10;63.70;;;19.42;;
3993;SDS011;2011;48.238;13.948;2023-02-15T02:42:43;51.05;;;18.30;;
3993;SDS011;2011;48.238;13.948;2023-02-15T02:45:15;50.83;;;19.27;;
3993;SDS011;2011;48.238;13.948;2023-02-15T02:47:50;137.65;;;24.98;;
3993;SDS011;2011;48.238;13.948;2023-02-15T02:50:25;58.63;;;19.95;;
3993;SDS011;2011;48.238;13.948;2023-02-15T02:52:54;55.10;;;18.40;;
3993;SDS011;2011;48.238;13.948;2023-02-15T02:55:22;82.95;;;21.85;;
3993;SDS011;2011;48.238;13.948;2023-02-15T02:57:53;57.72;;;20.48;;
3993;SDS011;2011;48.238;13.948;2023-02-15T03:00:23;51.67;;;19.35;;
3993;SDS011;2011;48.238;13.948;2023-02-15T03:02:53;59.92;;;19.15;;
3993;SDS011;2011;48.238;13.948;2023-02-15T03:05:25;51.92;;;19.05;;
3993;SDS011;2011;48.238;13.948;2023-02-15T03:07:55;47.22;;;17.45;;
3993;SDS011;2011;48.238;13.948;2023-02-15T03:10:23;59.97;;;18.20;;
3993;SDS011;2011;48.238;13.948;2023-02-15T03:12:51;69.28;;;19.02;;
3993;SDS011;2011;48.238;13.948;2023-02-15T03:15:19;58.40;;;17.90;;
3993;SDS011;2011;48.238;13.948;2023-02-15T03:17:50;52.85;;;17.27;;
3993;SDS011;2011;48.238;13.948;2023-02-15T03:20:22;50.35;;;17.30;;
3993;SDS011;2011;48.238;13.948;2023-02-15T03:22:54;50.83;;;17.90;;
3993;SDS011;2011;48.238;13.948;2023-02-15T03:25:25;52.85;;;16.20;;
3993;SDS011;2011;48.238;13.948;2023-02-15T03:28:00;46.83;;;15.35;;
3993;SDS011;2011;48.238;13.948;2023-02-15T03:30:29;46.17;;;15.60;;
3993;SDS011;2011;48.238;13.948;2023-02-15T03:32:58;42.45;;;16.20;;
3993;SDS011;2011;48.238;13.948;2023-02-15T03:35:30;46.25;;;15.18;;
3993;SDS011;2011;48.238;13.948;2023-02-15T03:38:03;46.50;;;16.52;;
3993;SDS011;2011;48.238;13.948;2023-02-15T03:40:34;52.13;;;17.40;;
3993;SDS011;2011;48.238;13.948;2023-02-15T03:43:23;48.83;;;16.42;;
3993;SDS011;2011;48.238;13.948;2023-02-15T03:45:56;57.60;;;15.98;;
3993;SDS011;2011;48.238;13.948;2023-02-15T03:48:31;60.72;;;16.70;;
3993;SDS011;2011;48.238;13.948;2023-02-15T03:51:04;65.45;;;17.40;;
3993;SDS011;2011;48.238;13.948;2023-02-15T03:53:52;60.38;;;17.73;;
3993;SDS011;2011;48.238;13.948;2023-02-15T03:56:21;65.78;;;17.38;;
3993;SDS011;2011;48.238;13.948;2023-02-15T03:58:48;63.03;;;19.15;;
3993;SDS011;2011;48.238;13.948;2023-02-15T04:01:33;58.05;;;17.05;;
3993;SDS011;2011;48.238;13.948;2023-02-15T04:04:36;47.03;;;16.17;;
3993;SDS011;2011;48.238;13.948;2023-02-15T04:07:04;40.13;;;16.15;;
3993;SDS011;2011;48.238;13.948;2023-02-15T04:09:33;45.33;;;15.00;;
3993;SDS011;2011;48.238;13.948;2023-02-15T04:12:17;50.88;;;15.10;;
3993;SDS011;2011;48.238;13.948;2023-02-15T04:14:44;59.88;;;15.68;;
3993;SDS011;2011;48.238;13.948;2023-02-15T04:17:28;80.50;;;16.23;;
3993;SDS011;2011;48.238;13.948;2023-02-15T04:19:56;50.80;;;16.05;;
3993;SDS011;2011;48.238;13.948;2023-02-15T04:22:40;37.25;;;14.05;;
3993;SDS011;2011;48.238;13.948;2023-02-15T04:25:24;50.70;;;15.68;;
3993;SDS011;2011;48.238;13.948;2023-02-15T04:27:52;54.97;;;16.08;;
3993;SDS011;2011;48.238;13.948;2023-02-15T04:30:21;40.55;;;13.60;;
3993;SDS011;2011;48.238;13.948;2023-02-15T04:32:49;46.33;;;15.20;;
3993;SDS011;2011;48.238;13.948;2023-02-15T04:35:17;43.45;;;14.90;;
3993;SDS011;2011;48.238;13.948;2023-02-15T04:37:44;42.88;;;14.75;;
3993;SDS011;2011;48.238;13.948;2023-02-15T04:40:12;52.72;;;16.55;;
3993;SDS011;2011;48.238;13.948;2023-02-15T04:42:40;43.30;;;14.52;;
3993;SDS011;2011;48.238;13.948;2023-02-15T04:45:07;56.47;;;16.00;;
3993;SDS011;2011;48.238;13.948;2023-02-15T04:47:34;42.22;;;15.95;;
3993;SDS011;2011;48.238;13.948;2023-02-15T04:50:01;49.45;;;17.65;;
3993;SDS011;2011;48.238;13.948;2023-02-15T04:52:29;46.38;;;15.68;;
3993;SDS011;2011;48.238;13.948;2023-02-15T04:54:56;48.38;;;16.92;;
3993;SDS011;2011;48.238;13.948;2023-02-15T04:57:23;58.55;;;16.52;;
3993;SDS011;2011;48.238;13.948;2023-02-15T04:59:50;46.78;;;14.98;;
3993;SDS011;2011;48.238;13.948;2023-02-15T05:02:17;44.47;;;15.18;;
3993;SDS011;2011;48.238;13.948;2023-02-15T05:04:44;42.22;;;14.52;;
3993;SDS011;2011;48.238;13.948;2023-02-15T05:07:11;52.13;;;16.40;;
3993;SDS011;2011;48.238;13.948;2023-02-15T05:09:39;47.53;;;16.75;;
3993;SDS011;2011;48.238;13.948;2023-02-15T05:12:06;53.22;;;16.45;;
3993;SDS011;2011;48.238;13.948;2023-02-15T05:14:33;51.50;;;16.45;;
3993;SDS011;2011;48.238;13.948;2023-02-15T05:17:00;56.33;;;16.75;;
3993;SDS011;2011;48.238;13.948;2023-02-15T05:19:28;63.67;;;18.65;;
3993;SDS011;2011;48.238;13.948;2023-02-15T05:21:55;59.65;;;17.40;;
3993;SDS011;2011;48.238;13.948;2023-02-15T05:24:22;55.78;;;17.13;;
3993;SDS011;2011;48.238;13.948;2023-02-15T05:27:08;53.03;;;18.60;;
3993;SDS011;2011;48.238;13.948;2023-02-15T05:29:54;68.57;;;17.85;;
3993;SDS011;2011;48.238;13.948;2023-02-15T05:32:21;108.70;;;20.20;;
3993;SDS011;2011;48.238;13.948;2023-02-15T05:34:48;74.45;;;19.08;;
3993;SDS011;2011;48.238;13.948;2023-02-15T05:37:15;145.90;;;19.58;;
3993;SDS011;2011;48.238;13.948;2023-02-15T05:39:42;84.13;;;19.05;;
3993;SDS011;2011;48.238;13.948;2023-02-15T05:42:10;71.65;;;18.90;;
3993;SDS011;2011;48.238;13.948;2023-02-15T05:44:37;73.50;;;19.45;;
3993;SDS011;2011;48.238;13.948;2023-02-15T05:47:04;83.43;;;19.13;;
3993;SDS011;2011;48.238;13.948;2023-02-15T05:49:32;67.05;;;19.23;;
3993;SDS011;2011;48.238;13.948;2023-02-15T05:51:59;78.38;;;22.80;;
3993;SDS011;2011;48.238;13.948;2023-02-15T05:54:26;66.20;;;18.63;;
3993;SDS011;2011;48.238;13.948;2023-02-15T05:56:53;92.07;;;21.75;;
3993;SDS011;2011;48.238;13.948;2023-02-15T05:59:22;83.35;;;22.77;;
3993;SDS011;2011;48.238;13.948;2023-02-15T06:01:49;80.20;;;21.02;;
3993;SDS011;2011;48.238;13.948;2023-02-15T06:04:16;71.97;;;19.48;;
3993;SDS011;2011;48.238;13.948;2023-02-15T06:06:43;69.13;;;19.95;;
3993;SDS011;2011;48.238;13.948;2023-02-15T06:09:10;79.18;;;20.70;;
3993;SDS011;2011;48.238;13.948;2023-02-15T06:11:38;101.97;;;21.17;;
3993;SDS011;2011;48.238;13.948;2023-02-15T06:14:05;156.05;;;25.33;;
3993;SDS011;2011;48.238;13.948;2023-02-15T06:16:33;93.25;;;20.92;;
3993;SDS011;2011;48.238;13.948;2023-02-15T06:19:00;91.65;;;20.25;;
3993;SDS011;2011;48.238;13.948;2023-02-15T06:21:27;106.47;;;23.38;;
3993;SDS011;2011;48.238;13.948;2023-02-15T06:23:54;66.65;;;20.58;;
3993;SDS011;2011;48.238;13.948;2023-02-15T06:26:21;90.15;;;22.10;;
3993;SDS011;2011;48.238;13.948;2023-02-15T06:28:48;77.93;;;21.70;;
3993;SDS011;2011;48.238;13.948;2023-02-15T06:31:15;98.10;;;24.38;;
3993;SDS011;2011;48.238;13.948;2023-02-15T06:33:43;85.65;;;23.33;;
3993;SDS011;2011;48.238;13.948;2023-02-15T06:36:10;106.20;;;24.42;;
3993;SDS011;2011;48.238;13.948;2023-02-15T06:38:38;126.70;;;22.88;;
3993;SDS011;2011;48.238;13.948;2023-02-15T06:41:05;107.55;;;22.38;;
3993;SDS011;2011;48.238;13.948;2023-02-15T06:43:31;101.22;;;23.17;;
3993;SDS011;2011;48.238;13.948;2023-02-15T06:45:59;68.32;;;20.23;;
3993;SDS011;2011;48.238;13.948;2023-02-15T06:48:26;78.63;;;22.00;;
3993;SDS011;2011;48.238;13.948;2023-02-15T06:50:54;124.32;;;26.27;;
3993;SDS011;2011;48.238;13.948;2023-02-15T06:53:21;127.63;;;25.38;;
3993;SDS011;2011;48.238;13.948;2023-02-15T06:55:48;98.57;;;24.70;;
3993;SDS011;2011;48.238;13.948;2023-02-15T06:58:15;79.25;;;21.55;;
3993;SDS011;2011;48.238;13.948;2023-02-15T07:00:42;221.73;;;29.15;;
3993;SDS011;2011;48.238;13.948;2023-02-15T07:03:08;89.35;;;23.38;;
3993;SDS011;2011;48.238;13.948;2023-02-15T07:05:35;134.65;;;25.67;;
3993;SDS011;2011;48.238;13.948;2023-02-15T07:08:04;122.95;;;27.15;;
3993;SDS011;2011;48.238;13.948;2023-02-15T07:10:30;103.68;;;25.38;;
3993;SDS011;2011;48.238;13.948;2023-02-15T07:12:57;101.63;;;26.02;;
3993;SDS011;2011;48.238;13.948;2023-02-15T07:15:23;115.93;;;25.13;;
3993;SDS011;2011;48.238;13.948;2023-02-15T07:17:50;92.53;;;23.73;;
3993;SDS011;2011;48.238;13.948;2023-02-15T07:20:18;117.40;;;27.13;;
3993;SDS011;2011;48.238;13.948;2023-02-15T07:22:46;149.98;;;30.20;;
3993;SDS011;2011;48.238;13.948;2023-02-15T07:25:15;149.32;;;28.75;;
3993;SDS011;2011;48.238;13.948;2023-02-15T07:27:42;132.57;;;26.38;;
3993;SDS011;2011;48.238;13.948;2023-02-15T07:30:10;106.07;;;25.95;;
3993;SDS011;2011;48.238;13.948;2023-02-15T07:32:39;104.95;;;23.00;;
3993;SDS011;2011;48.238;13.948;2023-02-15T07:35:26;113.95;;;24.48;;
3993;SDS011;2011;48.238;13.948;2023-02-15T07:37:53;75.32;;;23.20;;
3993;SDS011;2011;48.238;13.948;2023-02-15T07:40:22;139.80;;;27.00;;
3993;SDS011;2011;48.238;13.948;2023-02-15T07:42:49;105.20;;;25.30;;
3993;SDS011;2011;48.238;13.948;2023-02-15T07:45:19;101.50;;;25.27;;
3993;SDS011;2011;48.238;13.948;2023-02-15T07:47:47;194.05;;;29.83;;
3993;SDS011;2011;48.238;13.948;2023-02-15T07:50:14;113.85;;;29.30;;
3993;SDS011;2011;48.238;13.948;2023-02-15T07:52:41;110.55;;;25.90;;
3993;SDS011;2011;48.238;13.948;2023-02-15T07:55:07;233.88;;;30.90;;
3993;SDS011;2011;48.238;13.948;2023-02-15T07:57:39;106.95;;;25.35;;
3993;SDS011;2011;48.238;13.948;2023-02-15T08:00:09;83.55;;;23.55;;
3993;SDS011;2011;48.238;13.948;2023-02-15T08:02:38;87.60;;;23.67;;
3993;SDS011;2011;48.238;13.948;2023-02-15T08:05:05;83.90;;;21.25;;
3993;SDS011;2011;48.238;13.948;2023-02-15T08:07:32;85.63;;;25.50;;
3993;SDS011;2011;48.238;13.948;2023-02-15T08:09:59;83.80;;;22.52;;
3993;SDS011;2011;48.238;13.948;2023-02-15T08:12:26;64.63;;;20.35;;
3993;SDS011;2011;48.238;13.948;2023-02-15T08:14:54;64.95;;;21.15;;
3993;SDS011;2011;48.238;13.948;2023-02-15T08:17:21;82.32;;;22.52;;
3993;SDS011;2011;48.238;13.948;2023-02-15T08:19:48;74.60;;;22.83;;
3993;SDS011;2011;48.238;13.948;2023-02-15T08:22:15;65.18;;;20.55;;
3993;SDS011;2011;48.238;13.948;2023-02-15T08:24:42;91.30;;;23.13;;
3993;SDS011;2011;48.238;13.948;2023-02-15T08:27:10;76.25;;;23.05;;
3993;SDS011;2011;48.238;13.948;2023-02-15T08:29:37;95.63;;;23.67;;
3993;SDS011;2011;48.238;13.948;2023-02-15T08:32:08;167.85;;;27.35;;
3993;SDS011;2011;48.238;13.948;2023-02-15T08:34:38;86.63;;;23.33;;
3993;SDS011;2011;48.238;13.948;2023-02-15T08:37:06;79.35;;;23.48;;
3993;SDS011;2011;48.238;13.948;2023-02-15T08:39:34;80.25;;;23.42;;
3993;SDS011;2011;48.238;13.948;2023-02-15T08:42:01;95.50;;;26.10;;
3993;SDS011;2011;48.238;13.948;2023-02-15T08:44:29;84.50;;;23.48;;
3993;SDS011;2011;48.238;13.948;2023-02-15T08:46:56;79.95;;;23.90;;
3993;SDS011;2011;48.238;13.948;2023-02-15T08:49:29;79.53;;;24.30;;
3993;SDS011;2011;48.238;13.948;2023-02-15T08:51:56;84.53;;;25.30;;
3993;SDS011;2011;48.238;13.948;2023-02-15T08:54:24;81.47;;;25.25;;
3993;SDS011;2011;48.238;13.948;2023-02-15T08:56:51;90.28;;;26.05;;
3993;SDS011;2011;48.238;13.948;2023-02-15T08:59:19;111.72;;;28.02;;
3993;SDS011;2011;48.238;13.948;2023-02-15T09:01:47;91.60;;;25.58;;
3993;SDS011;2011;48.238;13.948;2023-02-15T09:04:15;129.73;;;29.25;;
3993;SDS011;2011;48.238;13.948;2023-02-15T09:06:44;101.15;;;26.00;;
3993;SDS011;2011;48.238;13.948;2023-02-15T09:09:12;94.57;;;24.92;;
3993;SDS011;2011;48.238;13.948;2023-02-15T09:11:40;89.80;;;25.17;;
3993;SDS011;2011;48.238;13.948;2023-02-15T09:14:11;100.20;;;24.70;;
3993;SDS011;2011;48.238;13.948;2023-02-15T09:16:39;86.18;;;23.75;;
3993;SDS011;2011;48.238;13.948;2023-02-15T09:19:09;92.38;;;25.63;;
3993;SDS011;2011;48.238;13.948;2023-02-15T09:21:37;87.63;;;24.13;;
3993;SDS011;2011;48.238;13.948;2023-02-15T09:24:06;83.05;;;22.67;;
3993;SDS011;2011;48.238;13.948;2023-02-15T09:26:36;68.65;;;21.88;;
3993;SDS011;2011;48.238;13.948;2023-02-15T09:29:05;92.43;;;23.60;;
3993;SDS011;2011;48.238;13.948;2023-02-15T09:31:33;80.82;;;23.38;;
3993;SDS011;2011;48.238;13.948;2023-02-15T09:34:03;99.30;;;25.85;;
3993;SDS011;2011;48.238;13.948;2023-02-15T09:36:31;95.38;;;25.92;;
3993;SDS011;2011;48.238;13.948;2023-02-15T09:39:00;91.97;;;24.83;;
3993;SDS011;2011;48.238;13.948;2023-02-15T09:44:40;102.13;;;26.27;;
3993;SDS011;2011;48.238;13.948;2023-02-15T09:47:39;87.00;;;25.48;;
3993;SDS011;2011;48.238;13.948;2023-02-15T09:50:33;88.10;;;26.20;;
3993;SDS011;2011;48.238;13.948;2023-02-15T09:53:19;98.38;;;25.55;;
3993;SDS011;2011;48.238;13.948;2023-02-15T09:56:13;81.30;;;22.45;;
3993;SDS011;2011;48.238;13.948;2023-02-15T09:58:49;75.95;;;22.70;;
3993;SDS011;2011;48.238;13.948;2023-02-15T10:01:25;80.35;;;23.90;;
3993;SDS011;2011;48.238;13.948;2023-02-15T10:04:04;71.63;;;23.15;;
3993;SDS011;2011;48.238;13.948;2023-02-15T10:06:44;69.50;;;23.20;;
3993;SDS011;2011;48.238;13.948;2023-02-15T10:09:32;68.70;;;22.73;;
3993;SDS011;2011;48.238;13.948;2023-02-15T10:12:14;65.07;;;21.80;;
3993;SDS011;2011;48.238;13.948;2023-02-15T10:20:41;64.95;;;20.00;;
3993;SDS011;2011;48.238;13.948;2023-02-15T10:23:21;87.22;;;24.33;;
3993;SDS011;2011;48.238;13.948;2023-02-15T10:25:59;67.18;;;23.27;;
3993;SDS011;2011;48.238;13.948;2023-02-15T10:28:38;68.72;;;23.42;;
3993;SDS011;2011;48.238;13.948;2023-02-15T10:31:13;73.07;;;24.08;;
3993;SDS011;2011;48.238;13.948;2023-02-15T10:33:51;56.47;;;21.42;;
3993;SDS011;2011;48.238;13.948;2023-02-15T10:36:38;70.93;;;24.67;;
3993;SDS011;2011;48.238;13.948;2023-02-15T10:39:20;59.47;;;20.80;;
3993;SDS011;2011;48.238;13.948;2023-02-15T10:41:54;62.55;;;21.10;;
3993;SDS011;2011;48.238;13.948;2023-02-15T10:44:40;72.32;;;23.58;;
3993;SDS011;2011;48.238;13.948;2023-02-15T10:47:24;91.80;;;25.20;;
3993;SDS011;2011;48.238;13.948;2023-02-15T10:53:05;86.25;;;23.23;;
3993;SDS011;2011;48.238;13.948;2023-02-15T10:55:45;73.43;;;23.70;;
3993;SDS011;2011;48.238;13.948;2023-02-15T10:58:21;84.80;;;25.95;;
3993;SDS011;2011;48.238;13.948;2023-02-15T11:01:00;63.70;;;21.60;;
3993;SDS011;2011;48.238;13.948;2023-02-15T11:03:39;73.05;;;22.20;;
3993;SDS011;2011;48.238;13.948;2023-02-15T11:06:31;71.93;;;22.65;;
3993;SDS011;2011;48.238;13.948;2023-02-15T11:09:02;62.47;;;21.08;;
3993;SDS011;2011;48.238;13.948;2023-02-15T11:11:32;61.03;;;22.13;;
3993;SDS011;2011;48.238;13.948;2023-02-15T11:14:02;62.15;;;21.55;;
3993;SDS011;2011;48.238;13.948;2023-02-15T11:16:36;58.42;;;20.30;;
3993;SDS011;2011;48.238;13.948;2023-02-15T11:19:08;55.83;;;21.88;;
3993;SDS011;2011;48.238;13.948;2023-02-15T11:21:40;58.72;;;20.98;;
3993;SDS011;2011;48.238;13.948;2023-02-15T11:24:12;67.65;;;22.63;;
3993;SDS011;2011;48.238;13.948;2023-02-15T11:26:41;70.28;;;21.77;;
3993;SDS011;2011;48.238;13.948;2023-02-15T11:29:11;80.70;;;23.83;;
3993;SDS011;2011;48.238;13.948;2023-02-15T11:31:41;61.08;;;21.55;;
3993;SDS011;2011;48.238;13.948;2023-02-15T11:34:14;70.47;;;23.35;;
3993;SDS011;2011;48.238;13.948;2023-02-15T11:36:47;72.28;;;23.33;;
3993;SDS011;2011;48.238;13.948;2023-02-15T11:39:18;52.13;;;20.85;;
3993;SDS011;2011;48.238;13.948;2023-02-15T11:41:47;75.40;;;25.45;;
3993;SDS011;2011;48.238;13.948;2023-02-15T11:44:19;65.50;;;23.35;;
3993;SDS011;2011;48.238;13.948;2023-02-15T11:46:49;69.22;;;21.58;;
3993;SDS011;2011;48.238;13.948;2023-02-15T11:49:22;58.15;;;22.90;;
3993;SDS011;2011;48.238;13.948;2023-02-15T11:51:50;57.28;;;20.77;;
3993;SDS011;2011;48.238;13.948;2023-02-15T11:54:19;57.05;;;20.70;;
3993;SDS011;2011;48.238;13.948;2023-02-15T11:56:52;54.05;;;21.50;;
3993;SDS011;2011;48.238;13.948;2023-02-15T11:59:21;57.55;;;20.58;;
3993;SDS011;2011;48.238;13.948;2023-02-15T12:01:56;55.85;;;20.45;;
3993;SDS011;2011;48.238;13.948;2023-02-15T12:04:25;59.65;;;21.17;;
3993;SDS011;2011;48.238;13.948;2023-02-15T12:06:57;59.35;;;22.05;;
3993;SDS011;2011;48.238;13.948;2023-02-15T12:09:29;65.18;;;21.88;;
3993;SDS011;2011;48.238;13.948;2023-02-15T12:14:47;70.07;;;22.60;;
3993;SDS011;2011;48.238;13.948;2023-02-15T12:17:15;56.53;;;22.05;;
3993;SDS011;2011;48.238;13.948;2023-02-15T12:19:45;68.63;;;23.85;;
3993;SDS011;2011;48.238;13.948;2023-02-15T12:22:18;62.92;;;21.88;;
3993;SDS011;2011;48.238;13.948;2023-02-15T12:24:50;65.73;;;23.37;;
3993;SDS011;2011;48.238;13.948;2023-02-15T12:27:20;63.15;;;22.70;;
3993;SDS011;2011;48.238;13.948;2023-02-15T12:29:50;72.07;;;24.58;;
3993;SDS011;2011;48.238;13.948;2023-02-15T12:32:19;62.67;;;22.92;;
3993;SDS011;2011;48.238;13.948;2023-02-15T12:34:51;75.47;;;24.27;;
3993;SDS011;2011;48.238;13.948;2023-02-15T12:37:25;58.67;;;21.17;;
3993;SDS011;2011;48.238;13.948;2023-02-15T12:39:57;57.05;;;21.60;;
3993;SDS011;2011;48.238;13.948;2023-02-15T12:42:25;64.78;;;22.75;;
3993;SDS011;2011;48.238;13.948;2023-02-15T12:44:55;61.77;;;22.30;;
3993;SDS011;2011;48.238;13.948;2023-02-15T12:47:24;65.70;;;23.02;;
3993;SDS011;2011;48.238;13.948;2023-02-15T12:50:07;69.38;;;23.52;;
3993;SDS011;2011;48.238;13.948;2023-02-15T12:52:42;71.30;;;24.90;;
3993;SDS011;2011;48.238;13.948;2023-02-15T12:55:10;60.55;;;23.10;;
3993;SDS011;2011;48.238;13.948;2023-02-15T12:57:44;63.95;;;23.83;;
3993;SDS011;2011;48.238;13.948;2023-02-15T13:00:24;56.80;;;23.33;;
3993;SDS011;2011;48.238;13.948;2023-02-15T13:02:54;68.70;;;22.90;;
3993;SDS011;2011;48.238;13.948;2023-02-15T13:05:25;57.50;;;22.75;;
3993;SDS011;2011;48.238;13.948;2023-02-15T13:07:57;63.58;;;24.25;;
3993;SDS011;2011;48.238;13.948;2023-02-15T13:10:26;67.07;;;23.35;;
3993;SDS011;2011;48.238;13.948;2023-02-15T13:12:55;60.38;;;23.63;;
3993;SDS011;2011;48.238;13.948;2023-02-15T13:15:27;75.20;;;24.70;;
3993;SDS011;2011;48.238;13.948;2023-02-15T13:17:58;71.35;;;23.80;;
3993;SDS011;2011;48.238;13.948;2023-02-15T13:20:29;62.88;;;24.42;;
3993;SDS011;2011;48.238;13.948;2023-02-15T13:22:57;51.60;;;21.27;;
3993;SDS011;2011;48.238;13.948;2023-02-15T13:25:31;67.20;;;24.55;;
3993;SDS011;2011;48.238;13.948;2023-02-15T13:28:05;63.53;;;24.25;;
3993;SDS011;2011;48.238;13.948;2023-02-15T13:30:38;64.85;;;23.50;;
3993;SDS011;2011;48.238;13.948;2023-02-15T13:33:11;73.70;;;24.80;;
3993;SDS011;2011;48.238;13.948;2023-02-15T13:35:46;68.47;;;23.10;;
3993;SDS011;2011;48.238;13.948;2023-02-15T13:38:26;64.22;;;22.90;;
3993;SDS011;2011;48.238;13.948;2023-02-15T13:41:12;75.07;;;23.80;;
3993;SDS011;2011;48.238;13.948;2023-02-15T13:43:46;70.68;;;23.60;;
3993;SDS011;2011;48.238;13.948;2023-02-15T13:46:22;60.15;;;23.60;;
3993;SDS011;2011;48.238;13.948;2023-02-15T13:49:03;70.10;;;22.08;;
3993;SDS011;2011;48.238;13.948;2023-02-15T13:51:43;69.17;;;23.70;;
3993;SDS011;2011;48.238;13.948;2023-02-15T13:54:28;70.18;;;22.88;;
3993;SDS011;2011;48.238;13.948;2023-02-15T13:57:15;64.18;;;22.67;;
3993;SDS011;2011;48.238;13.948;2023-02-15T13:59:58;60.35;;;23.92;;
3993;SDS011;2011;48.238;13.948;2023-02-15T14:02:41;65.53;;;21.93;;
3993;SDS011;2011;48.238;13.948;2023-02-15T14:05:28;70.57;;;24.87;;
3993;SDS011;2011;48.238;13.948;2023-02-15T14:08:04;75.28;;;26.92;;
3993;SDS011;2011;48.238;13.948;2023-02-15T14:10:39;70.47;;;24.75;;
3993;SDS011;2011;48.238;13.948;2023-02-15T14:13:25;68.67;;;24.50;;
3993;SDS011;2011;48.238;13.948;2023-02-15T14:16:06;61.50;;;22.95;;
3993;SDS011;2011;48.238;13.948;2023-02-15T14:18:39;72.28;;;24.15;;
3993;SDS011;2011;48.238;13.948;2023-02-15T14:21:14;71.15;;;24.58;;
3993;SDS011;2011;48.238;13.948;2023-02-15T14:23:51;74.43;;;25.25;;
3993;SDS011;2011;48.238;13.948;2023-02-15T14:26:27;72.07;;;24.50;;
3993;SDS011;2011;48.238;13.948;2023-02-15T14:29:06;57.65;;;22.77;;
3993;SDS011;2011;48.238;13.948;2023-02-15T14:31:41;64.57;;;23.52;;
3993;SDS011;2011;48.238;13.948;2023-02-15T14:34:16;66.07;;;23.33;;
3993;SDS011;2011;48.238;13.948;2023-02-15T14:36:46;67.13;;;22.73;;
3993;SDS011;2011;48.238;13.948;2023-02-15T14:39:18;61.90;;;22.13;;
3993;SDS011;2011;48.238;13.948;2023-02-15T14:42:15;60.60;;;22.50;;
3993;SDS011;2011;48.238;13.948;2023-02-15T14:44:48;72.50;;;23.73;;
3993;SDS011;2011;48.238;13.948;2023-02-15T14:47:25;55.85;;;22.17;;
3993;SDS011;2011;48.238;13.948;2023-02-15T14:49:56;58.60;;;23.70;;
3993;SDS011;2011;48.238;13.948;2023-02-15T14:52:23;60.17;;;21.57;;
3993;SDS011;2011;48.238;13.948;2023-02-15T14:54:58;58.30;;;20.55;;
3993;SDS011;2011;48.238;13.948;2023-02-15T14:57:26;56.03;;;23.00;;
3993;SDS011;2011;48.238;13.948;2023-02-15T14:59:56;64.10;;;21.63;;
3993;SDS011;2011;48.238;13.948;2023-02-15T15:02:29;58.97;;;21.85;;
3993;SDS011;2011;48.238;13.948;2023-02-15T15:05:07;60.80;;;22.35;;
3993;SDS011;2011;48.238;13.948;2023-02-15T15:07:37;52.40;;;20.85;;
3993;SDS011;2011;48.238;13.948;2023-02-15T15:13:34;54.50;;;21.20;;
3993;SDS011;2011;48.238;13.948;2023-02-15T15:16:29;64.63;;;21.85;;
3993;SDS011;2011;48.238;13.948;2023-02-15T15:19:08;63.53;;;23.05;;
3993;SDS011;2011;48.238;13.948;2023-02-15T15:21:52;80.20;;;25.88;;
3993;SDS011;2011;48.238;13.948;2023-02-15T15:39:47;62.33;;;22.20;;